sensor_id;sensor_type;location;lat;lon;timestamp;P1;durP1;ratioP1;P2;durP2;ratioP2
3781;SDS011;6881;49.962;7.718;2023-04-25T00:00:15;11.97;;;6.60;;
3781;SDS011;6881;49.962;7.718;2023-04-25T00:02:41;11.40;;;7.10;;
3781;SDS011;6881;49.962;7.718;2023-04-25T00:05:07;10.53;;;6.60;;
3781;SDS011;6881;49.962;7.718;2023-04-25T00:07:33;9.43;;;6.50;;
3781;SDS011;6881;49.962;7.718;2023-04-25T00:09:59;9.00;;;6.50;;
3781;SDS011;6881;49.962;7.718;2023-04-25T00:12:25;11.13;;;7.23;;
3781;SDS011;6881;49.962;7.718;2023-04-25T00:14:53;13.97;;;7.20;;
3781;SDS011;6881;49.962;7.718;2023-04-25T00:17:18;8.33;;;5.70;;
3781;SDS011;6881;49.962;7.718;2023-04-25T00:19:44;8.97;;;6.93;;
3781;SDS011;6881;49.962;7.718;2023-04-25T00:22:11;8.60;;;6.50;;
3781;SDS011;6881;49.962;7.718;2023-04-25T00:24:37;12.17;;;7.53;;
3781;SDS011;6881;49.962;7.718;2023-04-25T00:27:02;9.07;;;6.50;;
3781;SDS011;6881;49.962;7.718;2023-04-25T00:29:28;13.30;;;7.80;;
3781;SDS011;6881;49.962;7.718;2023-04-25T00:31:53;8.37;;;6.70;;
3781;SDS011;6881;49.962;7.718;2023-04-25T00:34:18;8.00;;;6.10;;
3781;SDS011;6881;49.962;7.718;2023-04-25T00:36:44;8.53;;;6.70;;
3781;SDS011;6881;49.962;7.718;2023-04-25T00:39:09;8.27;;;6.37;;
3781;SDS011;6881;49.962;7.718;2023-04-25T00:41:35;8.63;;;6.10;;
3781;SDS011;6881;49.962;7.718;2023-04-25T00:44:00;8.77;;;6.57;;
3781;SDS011;6881;49.962;7.718;2023-04-25T00:46:27;9.63;;;6.13;;
3781;SDS011;6881;49.962;7.718;2023-04-25T00:48:53;7.23;;;6.40;;
3781;SDS011;6881;49.962;7.718;2023-04-25T00:51:19;8.80;;;6.57;;
3781;SDS011;6881;49.962;7.718;2023-04-25T00:53:45;7.83;;;6.17;;
3781;SDS011;6881;49.962;7.718;2023-04-25T00:56:10;7.90;;;6.40;;
3781;SDS011;6881;49.962;7.718;2023-04-25T00:58:36;11.50;;;6.30;;
3781;SDS011;6881;49.962;7.718;2023-04-25T01:01:02;9.93;;;6.43;;
3781;SDS011;6881;49.962;7.718;2023-04-25T01:03:27;7.30;;;5.80;;
3781;SDS011;6881;49.962;7.718;2023-04-25T01:05:53;8.70;;;6.83;;
3781;SDS011;6881;49.962;7.718;2023-04-25T01:08:19;8.37;;;5.60;;
3781;SDS011;6881;49.962;7.718;2023-04-25T01:10:46;8.37;;;6.67;;
3781;SDS011;6881;49.962;7.718;2023-04-25T01:13:12;8.03;;;5.83;;
3781;SDS011;6881;49.962;7.718;2023-04-25T01:15:37;7.97;;;5.90;;
3781;SDS011;6881;49.962;7.718;2023-04-25T01:18:04;8.17;;;6.33;;
3781;SDS011;6881;49.962;7.718;2023-04-25T01:20:30;8.70;;;5.80;;
3781;SDS011;6881;49.962;7.718;2023-04-25T01:22:56;7.37;;;5.57;;
3781;SDS011;6881;49.962;7.718;2023-04-25T01:25:22;6.40;;;5.47;;
3781;SDS011;6881;49.962;7.718;2023-04-25T01:27:47;9.43;;;6.07;;
3781;SDS011;6881;49.962;7.718;2023-04-25T01:30:13;7.53;;;5.43;;
3781;SDS011;6881;49.962;7.718;2023-04-25T01:32:39;6.90;;;5.80;;
3781;SDS011;6881;49.962;7.718;2023-04-25T01:35:09;9.23;;;6.30;;
3781;SDS011;6881;49.962;7.718;2023-04-25T01:37:37;8.60;;;6.43;;
3781;SDS011;6881;49.962;7.718;2023-04-25T01:40:03;8.53;;;6.40;;
3781;SDS011;6881;49.962;7.718;2023-04-25T01:42:30;10.07;;;7.53;;
3781;SDS011;6881;49.962;7.718;2023-04-25T01:44:56;9.73;;;6.93;;
3781;SDS011;6881;49.962;7.718;2023-04-25T01:47:22;10.10;;;6.53;;
3781;SDS011;6881;49.962;7.718;2023-04-25T01:49:47;12.10;;;6.30;;
3781;SDS011;6881;49.962;7.718;2023-04-25T01:52:12;9.27;;;7.50;;
3781;SDS011;6881;49.962;7.718;2023-04-25T01:54:38;9.90;;;6.53;;
3781;SDS011;6881;49.962;7.718;2023-04-25T01:57:03;9.20;;;6.40;;
3781;SDS011;6881;49.962;7.718;2023-04-25T01:59:28;10.00;;;6.87;;
3781;SDS011;6881;49.962;7.718;2023-04-25T02:01:54;11.07;;;6.00;;
3781;SDS011;6881;49.962;7.718;2023-04-25T02:04:19;7.70;;;6.33;;
3781;SDS011;6881;49.962;7.718;2023-04-25T02:06:44;10.90;;;6.43;;
3781;SDS011;6881;49.962;7.718;2023-04-25T02:09:10;10.07;;;6.67;;
3781;SDS011;6881;49.962;7.718;2023-04-25T02:11:35;10.27;;;7.40;;
3781;SDS011;6881;49.962;7.718;2023-04-25T02:14:00;11.17;;;7.30;;
3781;SDS011;6881;49.962;7.718;2023-04-25T02:16:26;10.63;;;7.53;;
3781;SDS011;6881;49.962;7.718;2023-04-25T02:18:51;11.70;;;8.57;;
3781;SDS011;6881;49.962;7.718;2023-04-25T02:21:17;13.20;;;8.47;;
3781;SDS011;6881;49.962;7.718;2023-04-25T02:23:43;9.80;;;8.27;;
3781;SDS011;6881;49.962;7.718;2023-04-25T02:26:10;13.63;;;7.83;;
3781;SDS011;6881;49.962;7.718;2023-04-25T02:28:38;15.63;;;8.80;;
3781;SDS011;6881;49.962;7.718;2023-04-25T02:31:03;12.53;;;8.60;;
3781;SDS011;6881;49.962;7.718;2023-04-25T02:33:29;11.20;;;7.40;;
3781;SDS011;6881;49.962;7.718;2023-04-25T02:35:54;13.40;;;9.40;;
3781;SDS011;6881;49.962;7.718;2023-04-25T02:38:20;10.53;;;7.90;;
3781;SDS011;6881;49.962;7.718;2023-04-25T02:40:45;9.60;;;7.37;;
3781;SDS011;6881;49.962;7.718;2023-04-25T02:43:10;9.10;;;7.70;;
3781;SDS011;6881;49.962;7.718;2023-04-25T02:45:36;13.73;;;9.87;;
3781;SDS011;6881;49.962;7.718;2023-04-25T02:48:03;13.23;;;8.87;;
3781;SDS011;6881;49.962;7.718;2023-04-25T02:50:28;19.90;;;10.20;;
3781;SDS011;6881;49.962;7.718;2023-04-25T02:52:54;13.50;;;9.53;;
3781;SDS011;6881;49.962;7.718;2023-04-25T02:55:19;10.03;;;8.07;;
3781;SDS011;6881;49.962;7.718;2023-04-25T02:57:45;12.47;;;9.80;;
3781;SDS011;6881;49.962;7.718;2023-04-25T03:00:11;11.20;;;7.70;;
3781;SDS011;6881;49.962;7.718;2023-04-25T03:02:39;9.97;;;8.20;;
3781;SDS011;6881;49.962;7.718;2023-04-25T03:05:05;14.93;;;10.60;;
3781;SDS011;6881;49.962;7.718;2023-04-25T03:07:30;12.77;;;9.10;;
3781;SDS011;6881;49.962;7.718;2023-04-25T03:09:56;16.53;;;10.67;;
3781;SDS011;6881;49.962;7.718;2023-04-25T03:12:21;13.70;;;8.90;;
3781;SDS011;6881;49.962;7.718;2023-04-25T03:14:47;12.13;;;9.03;;
3781;SDS011;6881;49.962;7.718;2023-04-25T03:17:12;15.30;;;10.10;;
3781;SDS011;6881;49.962;7.718;2023-04-25T03:19:38;15.53;;;10.13;;
3781;SDS011;6881;49.962;7.718;2023-04-25T03:22:03;14.00;;;9.63;;
3781;SDS011;6881;49.962;7.718;2023-04-25T03:24:28;15.57;;;10.07;;
3781;SDS011;6881;49.962;7.718;2023-04-25T03:26:54;21.67;;;11.20;;
3781;SDS011;6881;49.962;7.718;2023-04-25T03:29:19;14.43;;;9.53;;
3781;SDS011;6881;49.962;7.718;2023-04-25T03:31:49;15.47;;;10.77;;
3781;SDS011;6881;49.962;7.718;2023-04-25T03:34:14;12.97;;;9.80;;
3781;SDS011;6881;49.962;7.718;2023-04-25T03:36:40;14.20;;;10.03;;
3781;SDS011;6881;49.962;7.718;2023-04-25T03:39:05;16.23;;;10.70;;
3781;SDS011;6881;49.962;7.718;2023-04-25T03:41:31;14.30;;;9.37;;
3781;SDS011;6881;49.962;7.718;2023-04-25T03:43:56;15.77;;;10.73;;
3781;SDS011;6881;49.962;7.718;2023-04-25T03:46:21;24.00;;;11.53;;
3781;SDS011;6881;49.962;7.718;2023-04-25T03:48:47;14.27;;;10.70;;
3781;SDS011;6881;49.962;7.718;2023-04-25T03:51:12;20.70;;;12.00;;
3781;SDS011;6881;49.962;7.718;2023-04-25T03:53:38;19.10;;;11.80;;
3781;SDS011;6881;49.962;7.718;2023-04-25T03:56:03;22.90;;;13.47;;
3781;SDS011;6881;49.962;7.718;2023-04-25T03:58:29;14.57;;;11.93;;
3781;SDS011;6881;49.962;7.718;2023-04-25T04:00:54;19.93;;;11.53;;
3781;SDS011;6881;49.962;7.718;2023-04-25T04:03:19;17.70;;;10.80;;
3781;SDS011;6881;49.962;7.718;2023-04-25T04:05:45;17.60;;;11.00;;
3781;SDS011;6881;49.962;7.718;2023-04-25T04:08:11;14.97;;;10.87;;
3781;SDS011;6881;49.962;7.718;2023-04-25T04:10:36;16.77;;;11.03;;
3781;SDS011;6881;49.962;7.718;2023-04-25T04:13:02;17.73;;;12.40;;
3781;SDS011;6881;49.962;7.718;2023-04-25T04:15:27;19.57;;;12.73;;
3781;SDS011;6881;49.962;7.718;2023-04-25T04:17:53;20.93;;;12.37;;
3781;SDS011;6881;49.962;7.718;2023-04-25T04:20:19;15.73;;;11.73;;
3781;SDS011;6881;49.962;7.718;2023-04-25T04:22:44;20.17;;;13.20;;
3781;SDS011;6881;49.962;7.718;2023-04-25T04:25:09;17.87;;;12.07;;
3781;SDS011;6881;49.962;7.718;2023-04-25T04:27:36;20.73;;;11.50;;
3781;SDS011;6881;49.962;7.718;2023-04-25T04:30:02;18.57;;;12.00;;
3781;SDS011;6881;49.962;7.718;2023-04-25T04:32:28;19.47;;;13.03;;
3781;SDS011;6881;49.962;7.718;2023-04-25T04:34:55;24.17;;;13.37;;
3781;SDS011;6881;49.962;7.718;2023-04-25T04:37:21;23.43;;;15.20;;
3781;SDS011;6881;49.962;7.718;2023-04-25T04:39:46;27.63;;;16.70;;
3781;SDS011;6881;49.962;7.718;2023-04-25T04:42:12;18.37;;;13.03;;
3781;SDS011;6881;49.962;7.718;2023-04-25T04:44:38;19.70;;;11.73;;
3781;SDS011;6881;49.962;7.718;2023-04-25T04:47:04;17.57;;;11.13;;
3781;SDS011;6881;49.962;7.718;2023-04-25T04:49:31;17.60;;;11.90;;
3781;SDS011;6881;49.962;7.718;2023-04-25T04:51:57;16.57;;;11.00;;
3781;SDS011;6881;49.962;7.718;2023-04-25T04:54:22;15.77;;;10.83;;
3781;SDS011;6881;49.962;7.718;2023-04-25T04:56:47;14.60;;;10.47;;
3781;SDS011;6881;49.962;7.718;2023-04-25T04:59:13;13.50;;;10.70;;
3781;SDS011;6881;49.962;7.718;2023-04-25T05:01:38;15.27;;;9.40;;
3781;SDS011;6881;49.962;7.718;2023-04-25T05:04:03;16.53;;;9.23;;
3781;SDS011;6881;49.962;7.718;2023-04-25T05:06:29;12.73;;;8.00;;
3781;SDS011;6881;49.962;7.718;2023-04-25T05:08:56;14.70;;;8.90;;
3781;SDS011;6881;49.962;7.718;2023-04-25T05:11:22;17.60;;;8.97;;
3781;SDS011;6881;49.962;7.718;2023-04-25T05:13:48;17.40;;;9.20;;
3781;SDS011;6881;49.962;7.718;2023-04-25T05:16:14;17.80;;;9.27;;
3781;SDS011;6881;49.962;7.718;2023-04-25T05:18:39;13.50;;;8.70;;
3781;SDS011;6881;49.962;7.718;2023-04-25T05:21:05;12.17;;;8.03;;
3781;SDS011;6881;49.962;7.718;2023-04-25T05:23:31;10.60;;;7.53;;
3781;SDS011;6881;49.962;7.718;2023-04-25T05:25:57;13.53;;;7.70;;
3781;SDS011;6881;49.962;7.718;2023-04-25T05:28:22;17.07;;;8.20;;
3781;SDS011;6881;49.962;7.718;2023-04-25T05:30:48;12.93;;;7.60;;
3781;SDS011;6881;49.962;7.718;2023-04-25T05:33:13;16.13;;;7.10;;
3781;SDS011;6881;49.962;7.718;2023-04-25T05:35:39;10.20;;;6.97;;
3781;SDS011;6881;49.962;7.718;2023-04-25T05:38:05;14.73;;;8.07;;
3781;SDS011;6881;49.962;7.718;2023-04-25T05:40:30;13.27;;;7.27;;
3781;SDS011;6881;49.962;7.718;2023-04-25T05:42:55;15.33;;;7.10;;
3781;SDS011;6881;49.962;7.718;2023-04-25T05:45:21;16.60;;;8.10;;
3781;SDS011;6881;49.962;7.718;2023-04-25T05:47:46;10.40;;;6.00;;
3781;SDS011;6881;49.962;7.718;2023-04-25T05:50:11;10.37;;;7.60;;
3781;SDS011;6881;49.962;7.718;2023-04-25T05:52:37;10.03;;;6.30;;
3781;SDS011;6881;49.962;7.718;2023-04-25T05:55:03;8.67;;;6.30;;
3781;SDS011;6881;49.962;7.718;2023-04-25T05:57:28;13.80;;;7.77;;
3781;SDS011;6881;49.962;7.718;2023-04-25T05:59:54;14.13;;;8.60;;
3781;SDS011;6881;49.962;7.718;2023-04-25T06:02:20;13.10;;;6.77;;
3781;SDS011;6881;49.962;7.718;2023-04-25T06:04:51;13.40;;;7.07;;
3781;SDS011;6881;49.962;7.718;2023-04-25T06:07:17;10.30;;;6.53;;
3781;SDS011;6881;49.962;7.718;2023-04-25T06:09:43;18.23;;;7.17;;
3781;SDS011;6881;49.962;7.718;2023-04-25T06:12:09;11.10;;;6.70;;
3781;SDS011;6881;49.962;7.718;2023-04-25T06:14:34;8.37;;;5.80;;
3781;SDS011;6881;49.962;7.718;2023-04-25T06:17:00;8.23;;;5.77;;
3781;SDS011;6881;49.962;7.718;2023-04-25T06:19:31;9.87;;;5.83;;
3781;SDS011;6881;49.962;7.718;2023-04-25T06:21:57;5.50;;;4.73;;
3781;SDS011;6881;49.962;7.718;2023-04-25T06:24:23;5.47;;;4.93;;
3781;SDS011;6881;49.962;7.718;2023-04-25T06:26:48;6.40;;;5.33;;
3781;SDS011;6881;49.962;7.718;2023-04-25T06:29:14;7.47;;;4.77;;
3781;SDS011;6881;49.962;7.718;2023-04-25T06:31:39;8.90;;;4.90;;
3781;SDS011;6881;49.962;7.718;2023-04-25T06:34:04;8.23;;;4.03;;
3781;SDS011;6881;49.962;7.718;2023-04-25T06:36:30;7.50;;;3.90;;
3781;SDS011;6881;49.962;7.718;2023-04-25T06:38:55;8.90;;;4.87;;
3781;SDS011;6881;49.962;7.718;2023-04-25T06:41:20;6.27;;;4.10;;
3781;SDS011;6881;49.962;7.718;2023-04-25T06:43:46;9.13;;;5.17;;
3781;SDS011;6881;49.962;7.718;2023-04-25T06:46:11;5.23;;;3.43;;
3781;SDS011;6881;49.962;7.718;2023-04-25T06:48:37;6.17;;;4.00;;
3781;SDS011;6881;49.962;7.718;2023-04-25T06:51:02;6.53;;;3.87;;
3781;SDS011;6881;49.962;7.718;2023-04-25T06:53:28;6.00;;;3.73;;
3781;SDS011;6881;49.962;7.718;2023-04-25T06:55:54;7.30;;;4.00;;
3781;SDS011;6881;49.962;7.718;2023-04-25T06:58:20;4.50;;;4.10;;
3781;SDS011;6881;49.962;7.718;2023-04-25T07:00:45;4.60;;;3.13;;
3781;SDS011;6881;49.962;7.718;2023-04-25T07:03:10;6.50;;;3.43;;
3781;SDS011;6881;49.962;7.718;2023-04-25T07:05:36;6.10;;;3.43;;
3781;SDS011;6881;49.962;7.718;2023-04-25T07:08:01;4.57;;;3.10;;
3781;SDS011;6881;49.962;7.718;2023-04-25T07:10:27;5.80;;;3.93;;
3781;SDS011;6881;49.962;7.718;2023-04-25T07:12:53;8.53;;;3.97;;
3781;SDS011;6881;49.962;7.718;2023-04-25T07:15:18;3.97;;;3.37;;
3781;SDS011;6881;49.962;7.718;2023-04-25T07:17:44;5.00;;;3.73;;
3781;SDS011;6881;49.962;7.718;2023-04-25T07:20:09;6.70;;;3.03;;
3781;SDS011;6881;49.962;7.718;2023-04-25T07:22:35;4.33;;;3.20;;
3781;SDS011;6881;49.962;7.718;2023-04-25T07:25:00;4.73;;;3.40;;
3781;SDS011;6881;49.962;7.718;2023-04-25T07:27:26;8.27;;;3.53;;
3781;SDS011;6881;49.962;7.718;2023-04-25T07:29:51;4.70;;;2.70;;
3781;SDS011;6881;49.962;7.718;2023-04-25T07:32:16;8.03;;;3.50;;
3781;SDS011;6881;49.962;7.718;2023-04-25T07:34:42;3.77;;;2.97;;
3781;SDS011;6881;49.962;7.718;2023-04-25T07:37:07;5.90;;;3.70;;
3781;SDS011;6881;49.962;7.718;2023-04-25T07:39:32;3.70;;;2.63;;
3781;SDS011;6881;49.962;7.718;2023-04-25T07:41:58;3.30;;;2.50;;
3781;SDS011;6881;49.962;7.718;2023-04-25T07:44:25;11.00;;;3.30;;
3781;SDS011;6881;49.962;7.718;2023-04-25T07:46:50;4.97;;;3.20;;
3781;SDS011;6881;49.962;7.718;2023-04-25T07:49:16;3.77;;;3.00;;
3781;SDS011;6881;49.962;7.718;2023-04-25T07:51:41;3.00;;;2.70;;
3781;SDS011;6881;49.962;7.718;2023-04-25T07:54:08;6.23;;;3.10;;
3781;SDS011;6881;49.962;7.718;2023-04-25T07:56:34;3.77;;;3.37;;
3781;SDS011;6881;49.962;7.718;2023-04-25T07:59:00;4.00;;;3.60;;
3781;SDS011;6881;49.962;7.718;2023-04-25T08:01:25;6.97;;;3.27;;
3781;SDS011;6881;49.962;7.718;2023-04-25T08:03:51;3.90;;;2.80;;
3781;SDS011;6881;49.962;7.718;2023-04-25T08:06:17;4.70;;;3.10;;
3781;SDS011;6881;49.962;7.718;2023-04-25T08:08:42;4.03;;;3.47;;
3781;SDS011;6881;49.962;7.718;2023-04-25T08:11:08;4.30;;;3.90;;
3781;SDS011;6881;49.962;7.718;2023-04-25T08:13:33;6.33;;;3.67;;
3781;SDS011;6881;49.962;7.718;2023-04-25T08:15:59;8.47;;;3.50;;
3781;SDS011;6881;49.962;7.718;2023-04-25T08:18:24;7.50;;;4.10;;
3781;SDS011;6881;49.962;7.718;2023-04-25T08:20:50;5.43;;;3.60;;
3781;SDS011;6881;49.962;7.718;2023-04-25T08:23:15;6.00;;;3.60;;
3781;SDS011;6881;49.962;7.718;2023-04-25T08:25:40;4.20;;;3.37;;
3781;SDS011;6881;49.962;7.718;2023-04-25T08:28:06;5.57;;;3.80;;
3781;SDS011;6881;49.962;7.718;2023-04-25T08:30:31;4.23;;;3.50;;
3781;SDS011;6881;49.962;7.718;2023-04-25T08:32:57;5.30;;;3.90;;
3781;SDS011;6881;49.962;7.718;2023-04-25T08:35:22;4.70;;;4.20;;
3781;SDS011;6881;49.962;7.718;2023-04-25T08:37:48;4.13;;;3.73;;
3781;SDS011;6881;49.962;7.718;2023-04-25T08:40:14;9.77;;;4.03;;
3781;SDS011;6881;49.962;7.718;2023-04-25T08:42:43;5.10;;;3.90;;
3781;SDS011;6881;49.962;7.718;2023-04-25T08:45:09;4.80;;;3.80;;
3781;SDS011;6881;49.962;7.718;2023-04-25T08:47:35;4.20;;;3.80;;
3781;SDS011;6881;49.962;7.718;2023-04-25T08:50:03;8.33;;;4.40;;
3781;SDS011;6881;49.962;7.718;2023-04-25T08:52:30;3.83;;;3.50;;
3781;SDS011;6881;49.962;7.718;2023-04-25T08:55:02;8.07;;;4.90;;
3781;SDS011;6881;49.962;7.718;2023-04-25T08:57:29;7.33;;;3.70;;
3781;SDS011;6881;49.962;7.718;2023-04-25T08:59:56;5.70;;;3.93;;
3781;SDS011;6881;49.962;7.718;2023-04-25T09:02:22;6.23;;;4.00;;
3781;SDS011;6881;49.962;7.718;2023-04-25T09:04:49;9.03;;;4.00;;
3781;SDS011;6881;49.962;7.718;2023-04-25T09:07:15;5.03;;;3.87;;
3781;SDS011;6881;49.962;7.718;2023-04-25T09:09:43;6.37;;;3.40;;
3781;SDS011;6881;49.962;7.718;2023-04-25T09:12:09;6.57;;;4.17;;
3781;SDS011;6881;49.962;7.718;2023-04-25T09:14:35;5.43;;;3.60;;
3781;SDS011;6881;49.962;7.718;2023-04-25T09:17:00;5.30;;;3.97;;
3781;SDS011;6881;49.962;7.718;2023-04-25T09:19:28;4.97;;;4.47;;
3781;SDS011;6881;49.962;7.718;2023-04-25T09:21:58;6.43;;;4.43;;
3781;SDS011;6881;49.962;7.718;2023-04-25T09:24:42;7.97;;;4.90;;
3781;SDS011;6881;49.962;7.718;2023-04-25T09:27:12;8.77;;;4.90;;
3781;SDS011;6881;49.962;7.718;2023-04-25T09:29:39;10.43;;;4.53;;
3781;SDS011;6881;49.962;7.718;2023-04-25T09:34:51;4.77;;;3.40;;
3781;SDS011;6881;49.962;7.718;2023-04-25T09:39:44;4.90;;;4.40;;
3781;SDS011;6881;49.962;7.718;2023-04-25T09:42:11;8.93;;;5.63;;
3781;SDS011;6881;49.962;7.718;2023-04-25T09:44:37;13.53;;;5.80;;
3781;SDS011;6881;49.962;7.718;2023-04-25T09:47:09;11.83;;;7.33;;
3781;SDS011;6881;49.962;7.718;2023-04-25T09:49:39;10.53;;;5.00;;
3781;SDS011;6881;49.962;7.718;2023-04-25T09:52:06;7.40;;;5.50;;
3781;SDS011;6881;49.962;7.718;2023-04-25T09:54:31;7.30;;;6.10;;
3781;SDS011;6881;49.962;7.718;2023-04-25T09:56:57;9.53;;;5.67;;
3781;SDS011;6881;49.962;7.718;2023-04-25T09:59:22;10.87;;;6.40;;
3781;SDS011;6881;49.962;7.718;2023-04-25T10:01:48;9.60;;;6.07;;
3781;SDS011;6881;49.962;7.718;2023-04-25T10:04:16;6.37;;;4.37;;
3781;SDS011;6881;49.962;7.718;2023-04-25T10:06:48;10.43;;;4.53;;
3781;SDS011;6881;49.962;7.718;2023-04-25T10:09:16;6.83;;;4.57;;
3781;SDS011;6881;49.962;7.718;2023-04-25T10:11:43;7.83;;;4.80;;
3781;SDS011;6881;49.962;7.718;2023-04-25T10:14:15;6.43;;;4.27;;
3781;SDS011;6881;49.962;7.718;2023-04-25T10:16:41;7.03;;;3.67;;
3781;SDS011;6881;49.962;7.718;2023-04-25T10:19:07;10.30;;;4.60;;
3781;SDS011;6881;49.962;7.718;2023-04-25T10:21:32;7.57;;;6.63;;
3781;SDS011;6881;49.962;7.718;2023-04-25T10:23:58;9.37;;;5.57;;
3781;SDS011;6881;49.962;7.718;2023-04-25T10:26:24;6.30;;;4.53;;
3781;SDS011;6881;49.962;7.718;2023-04-25T10:29:00;8.63;;;4.73;;
3781;SDS011;6881;49.962;7.718;2023-04-25T10:31:26;5.93;;;4.33;;
3781;SDS011;6881;49.962;7.718;2023-04-25T10:33:52;5.20;;;4.70;;
3781;SDS011;6881;49.962;7.718;2023-04-25T10:36:18;14.10;;;5.07;;
3781;SDS011;6881;49.962;7.718;2023-04-25T10:38:46;6.27;;;4.50;;
3781;SDS011;6881;49.962;7.718;2023-04-25T10:41:13;6.97;;;5.00;;
3781;SDS011;6881;49.962;7.718;2023-04-25T10:43:42;14.00;;;6.47;;
3781;SDS011;6881;49.962;7.718;2023-04-25T10:46:28;6.30;;;4.53;;
3781;SDS011;6881;49.962;7.718;2023-04-25T10:49:00;5.70;;;4.13;;
3781;SDS011;6881;49.962;7.718;2023-04-25T10:56:20;5.80;;;4.30;;
3781;SDS011;6881;49.962;7.718;2023-04-25T10:58:47;10.93;;;5.20;;
3781;SDS011;6881;49.962;7.718;2023-04-25T11:01:13;11.80;;;4.57;;
3781;SDS011;6881;49.962;7.718;2023-04-25T11:03:40;6.20;;;4.90;;
3781;SDS011;6881;49.962;7.718;2023-04-25T11:06:08;7.50;;;5.20;;
3781;SDS011;6881;49.962;7.718;2023-04-25T11:08:47;7.13;;;4.37;;
3781;SDS011;6881;49.962;7.718;2023-04-25T11:11:15;9.50;;;5.20;;
3781;SDS011;6881;49.962;7.718;2023-04-25T11:13:41;6.37;;;5.20;;
3781;SDS011;6881;49.962;7.718;2023-04-25T11:16:07;5.73;;;5.00;;
3781;SDS011;6881;49.962;7.718;2023-04-25T11:18:33;5.40;;;4.40;;
3781;SDS011;6881;49.962;7.718;2023-04-25T11:20:59;7.20;;;4.70;;
3781;SDS011;6881;49.962;7.718;2023-04-25T11:23:25;7.10;;;4.60;;
3781;SDS011;6881;49.962;7.718;2023-04-25T11:25:51;5.57;;;4.00;;
3781;SDS011;6881;49.962;7.718;2023-04-25T11:28:20;8.63;;;5.17;;
3781;SDS011;6881;49.962;7.718;2023-04-25T11:30:49;7.53;;;5.20;;
3781;SDS011;6881;49.962;7.718;2023-04-25T11:33:15;7.43;;;4.00;;
3781;SDS011;6881;49.962;7.718;2023-04-25T11:35:41;6.00;;;4.90;;
3781;SDS011;6881;49.962;7.718;2023-04-25T11:38:06;7.33;;;4.93;;
3781;SDS011;6881;49.962;7.718;2023-04-25T11:40:32;8.50;;;3.90;;
3781;SDS011;6881;49.962;7.718;2023-04-25T11:42:59;6.60;;;4.30;;
3781;SDS011;6881;49.962;7.718;2023-04-25T11:45:25;5.97;;;5.23;;
3781;SDS011;6881;49.962;7.718;2023-04-25T11:47:51;6.37;;;4.73;;
3781;SDS011;6881;49.962;7.718;2023-04-25T11:50:17;11.20;;;5.30;;
3781;SDS011;6881;49.962;7.718;2023-04-25T11:52:44;6.13;;;4.37;;
3781;SDS011;6881;49.962;7.718;2023-04-25T11:55:14;5.13;;;4.13;;
3781;SDS011;6881;49.962;7.718;2023-04-25T11:57:44;9.23;;;4.83;;
3781;SDS011;6881;49.962;7.718;2023-04-25T12:02:52;5.07;;;3.83;;
3781;SDS011;6881;49.962;7.718;2023-04-25T12:05:19;5.87;;;4.37;;
3781;SDS011;6881;49.962;7.718;2023-04-25T12:07:45;5.50;;;4.30;;
3781;SDS011;6881;49.962;7.718;2023-04-25T12:10:11;7.13;;;4.13;;
3781;SDS011;6881;49.962;7.718;2023-04-25T12:12:41;6.40;;;4.53;;
3781;SDS011;6881;49.962;7.718;2023-04-25T12:15:14;4.93;;;3.80;;
3781;SDS011;6881;49.962;7.718;2023-04-25T12:17:44;8.27;;;3.80;;
3781;SDS011;6881;49.962;7.718;2023-04-25T12:20:12;5.50;;;3.73;;
3781;SDS011;6881;49.962;7.718;2023-04-25T12:22:40;4.07;;;3.60;;
3781;SDS011;6881;49.962;7.718;2023-04-25T12:25:13;5.43;;;3.80;;
3781;SDS011;6881;49.962;7.718;2023-04-25T12:27:39;6.37;;;3.97;;
3781;SDS011;6881;49.962;7.718;2023-04-25T12:30:07;5.60;;;3.50;;
3781;SDS011;6881;49.962;7.718;2023-04-25T12:32:33;8.40;;;5.00;;
3781;SDS011;6881;49.962;7.718;2023-04-25T12:34:58;6.30;;;3.37;;
3781;SDS011;6881;49.962;7.718;2023-04-25T12:37:23;5.07;;;4.00;;
3781;SDS011;6881;49.962;7.718;2023-04-25T12:39:49;6.80;;;3.63;;
3781;SDS011;6881;49.962;7.718;2023-04-25T12:42:15;5.87;;;3.90;;
3781;SDS011;6881;49.962;7.718;2023-04-25T12:44:40;5.60;;;3.80;;
3781;SDS011;6881;49.962;7.718;2023-04-25T12:47:06;6.27;;;2.93;;
3781;SDS011;6881;49.962;7.718;2023-04-25T12:49:31;4.00;;;2.60;;
3781;SDS011;6881;49.962;7.718;2023-04-25T12:51:57;4.50;;;2.57;;
3781;SDS011;6881;49.962;7.718;2023-04-25T12:54:22;3.63;;;2.77;;
3781;SDS011;6881;49.962;7.718;2023-04-25T12:56:48;5.37;;;3.00;;
3781;SDS011;6881;49.962;7.718;2023-04-25T12:59:15;3.80;;;2.37;;
3781;SDS011;6881;49.962;7.718;2023-04-25T13:01:40;5.07;;;3.30;;
3781;SDS011;6881;49.962;7.718;2023-04-25T13:04:05;3.30;;;2.43;;
3781;SDS011;6881;49.962;7.718;2023-04-25T13:06:31;4.30;;;3.03;;
3781;SDS011;6881;49.962;7.718;2023-04-25T13:08:56;3.53;;;2.83;;
3781;SDS011;6881;49.962;7.718;2023-04-25T13:11:22;3.73;;;2.90;;
3781;SDS011;6881;49.962;7.718;2023-04-25T13:13:47;5.50;;;3.43;;
3781;SDS011;6881;49.962;7.718;2023-04-25T13:16:13;5.83;;;3.00;;
3781;SDS011;6881;49.962;7.718;2023-04-25T13:18:41;7.97;;;3.33;;
3781;SDS011;6881;49.962;7.718;2023-04-25T13:21:07;3.70;;;2.30;;
3781;SDS011;6881;49.962;7.718;2023-04-25T13:23:34;6.63;;;3.30;;
3781;SDS011;6881;49.962;7.718;2023-04-25T13:25:59;6.50;;;3.40;;
3781;SDS011;6881;49.962;7.718;2023-04-25T13:28:26;6.40;;;2.97;;
3781;SDS011;6881;49.962;7.718;2023-04-25T13:30:52;5.30;;;3.50;;
3781;SDS011;6881;49.962;7.718;2023-04-25T13:33:18;5.07;;;3.33;;
3781;SDS011;6881;49.962;7.718;2023-04-25T13:35:45;5.40;;;3.23;;
3781;SDS011;6881;49.962;7.718;2023-04-25T13:38:12;4.50;;;3.20;;
3781;SDS011;6881;49.962;7.718;2023-04-25T13:40:38;3.67;;;2.63;;
3781;SDS011;6881;49.962;7.718;2023-04-25T13:43:03;6.37;;;2.63;;
3781;SDS011;6881;49.962;7.718;2023-04-25T13:45:29;5.30;;;2.47;;
3781;SDS011;6881;49.962;7.718;2023-04-25T13:47:54;8.40;;;3.67;;
3781;SDS011;6881;49.962;7.718;2023-04-25T13:50:20;10.17;;;5.70;;
3781;SDS011;6881;49.962;7.718;2023-04-25T13:52:45;3.77;;;2.90;;
3781;SDS011;6881;49.962;7.718;2023-04-25T13:55:10;4.63;;;3.23;;
3781;SDS011;6881;49.962;7.718;2023-04-25T13:57:36;7.40;;;4.50;;
3781;SDS011;6881;49.962;7.718;2023-04-25T14:00:03;8.30;;;5.07;;
3781;SDS011;6881;49.962;7.718;2023-04-25T14:02:33;10.17;;;5.57;;
3781;SDS011;6881;49.962;7.718;2023-04-25T14:05:02;6.37;;;3.90;;
3781;SDS011;6881;49.962;7.718;2023-04-25T14:07:28;4.20;;;2.80;;
3781;SDS011;6881;49.962;7.718;2023-04-25T14:09:54;6.00;;;2.87;;
3781;SDS011;6881;49.962;7.718;2023-04-25T14:12:19;6.63;;;2.83;;
3781;SDS011;6881;49.962;7.718;2023-04-25T14:14:44;7.13;;;3.50;;
3781;SDS011;6881;49.962;7.718;2023-04-25T14:17:10;5.00;;;3.07;;
3781;SDS011;6881;49.962;7.718;2023-04-25T14:19:36;4.30;;;2.60;;
3781;SDS011;6881;49.962;7.718;2023-04-25T14:22:03;5.00;;;4.00;;
3781;SDS011;6881;49.962;7.718;2023-04-25T14:24:28;6.30;;;5.77;;
3781;SDS011;6881;49.962;7.718;2023-04-25T14:26:54;8.87;;;4.37;;
3781;SDS011;6881;49.962;7.718;2023-04-25T14:29:19;4.90;;;2.23;;
3781;SDS011;6881;49.962;7.718;2023-04-25T14:31:45;4.63;;;2.57;;
3781;SDS011;6881;49.962;7.718;2023-04-25T14:34:10;4.60;;;2.30;;
3781;SDS011;6881;49.962;7.718;2023-04-25T14:36:36;4.53;;;3.00;;
3781;SDS011;6881;49.962;7.718;2023-04-25T14:39:01;4.17;;;3.03;;
3781;SDS011;6881;49.962;7.718;2023-04-25T14:41:27;3.27;;;2.67;;
3781;SDS011;6881;49.962;7.718;2023-04-25T14:43:53;4.23;;;2.40;;
3781;SDS011;6881;49.962;7.718;2023-04-25T14:46:19;4.23;;;2.57;;
3781;SDS011;6881;49.962;7.718;2023-04-25T14:48:45;4.27;;;2.50;;
3781;SDS011;6881;49.962;7.718;2023-04-25T14:51:10;3.77;;;2.93;;
3781;SDS011;6881;49.962;7.718;2023-04-25T14:53:36;5.67;;;2.90;;
3781;SDS011;6881;49.962;7.718;2023-04-25T14:56:01;4.07;;;2.60;;
3781;SDS011;6881;49.962;7.718;2023-04-25T14:58:27;6.20;;;2.73;;
3781;SDS011;6881;49.962;7.718;2023-04-25T15:00:52;3.50;;;2.17;;
3781;SDS011;6881;49.962;7.718;2023-04-25T15:03:18;3.47;;;2.70;;
3781;SDS011;6881;49.962;7.718;2023-04-25T15:05:43;5.77;;;2.37;;
3781;SDS011;6881;49.962;7.718;2023-04-25T15:08:09;4.43;;;2.37;;
3781;SDS011;6881;49.962;7.718;2023-04-25T15:10:35;5.27;;;2.43;;
3781;SDS011;6881;49.962;7.718;2023-04-25T15:13:00;9.20;;;3.63;;
3781;SDS011;6881;49.962;7.718;2023-04-25T15:15:26;7.60;;;3.00;;